sensor_id;sensor_type;location;lat;lon;timestamp;P1;durP1;ratioP1;P2;durP2;ratioP2
19814;SDS011;10067;53.092;8.800;2023-12-29T00:00:07;8.60;;;2.38;;
19814;SDS011;10067;53.092;8.800;2023-12-29T00:02:34;9.85;;;2.58;;
19814;SDS011;10067;53.092;8.800;2023-12-29T00:05:01;12.20;;;3.30;;
19814;SDS011;10067;53.092;8.800;2023-12-29T00:07:28;13.63;;;2.55;;
19814;SDS011;10067;53.092;8.800;2023-12-29T00:09:55;8.10;;;2.42;;
19814;SDS011;10067;53.092;8.800;2023-12-29T00:12:21;11.35;;;2.75;;
19814;SDS011;10067;53.092;8.800;2023-12-29T00:14:48;16.70;;;3.08;;
19814;SDS011;10067;53.092;8.800;2023-12-29T00:17:14;9.93;;;2.80;;
19814;SDS011;10067;53.092;8.800;2023-12-29T00:19:40;12.80;;;2.78;;
19814;SDS011;10067;53.092;8.800;2023-12-29T00:22:07;9.18;;;2.53;;
19814;SDS011;10067;53.092;8.800;2023-12-29T00:24:34;9.52;;;2.88;;
19814;SDS011;10067;53.092;8.800;2023-12-29T00:27:01;15.48;;;3.05;;
19814;SDS011;10067;53.092;8.800;2023-12-29T00:29:27;12.57;;;2.95;;
19814;SDS011;10067;53.092;8.800;2023-12-29T00:31:57;12.20;;;2.97;;
19814;SDS011;10067;53.092;8.800;2023-12-29T00:34:24;12.02;;;2.75;;
19814;SDS011;10067;53.092;8.800;2023-12-29T00:36:50;12.05;;;2.60;;
19814;SDS011;10067;53.092;8.800;2023-12-29T00:39:16;11.82;;;2.60;;
19814;SDS011;10067;53.092;8.800;2023-12-29T00:41:44;15.25;;;2.63;;
19814;SDS011;10067;53.092;8.800;2023-12-29T00:44:10;15.90;;;3.22;;
19814;SDS011;10067;53.092;8.800;2023-12-29T00:46:37;10.07;;;2.70;;
19814;SDS011;10067;53.092;8.800;2023-12-29T00:49:03;10.38;;;3.33;;
19814;SDS011;10067;53.092;8.800;2023-12-29T00:51:29;7.47;;;3.05;;
19814;SDS011;10067;53.092;8.800;2023-12-29T00:53:56;10.52;;;2.35;;
19814;SDS011;10067;53.092;8.800;2023-12-29T00:56:22;11.80;;;3.13;;
19814;SDS011;10067;53.092;8.800;2023-12-29T00:58:50;11.05;;;2.15;;
19814;SDS011;10067;53.092;8.800;2023-12-29T01:01:16;12.35;;;2.50;;
19814;SDS011;10067;53.092;8.800;2023-12-29T01:03:43;13.68;;;2.78;;
19814;SDS011;10067;53.092;8.800;2023-12-29T01:06:09;8.63;;;2.35;;
19814;SDS011;10067;53.092;8.800;2023-12-29T01:08:35;15.23;;;2.92;;
19814;SDS011;10067;53.092;8.800;2023-12-29T01:11:03;15.80;;;2.65;;
19814;SDS011;10067;53.092;8.800;2023-12-29T01:13:29;8.63;;;2.58;;
19814;SDS011;10067;53.092;8.800;2023-12-29T01:15:57;11.88;;;2.40;;
19814;SDS011;10067;53.092;8.800;2023-12-29T01:18:23;8.57;;;3.10;;
19814;SDS011;10067;53.092;8.800;2023-12-29T01:20:49;9.57;;;2.65;;
19814;SDS011;10067;53.092;8.800;2023-12-29T01:23:16;10.27;;;2.47;;
19814;SDS011;10067;53.092;8.800;2023-12-29T01:25:43;12.43;;;2.67;;
19814;SDS011;10067;53.092;8.800;2023-12-29T01:28:09;14.60;;;2.83;;
19814;SDS011;10067;53.092;8.800;2023-12-29T01:30:35;9.10;;;2.35;;
19814;SDS011;10067;53.092;8.800;2023-12-29T01:33:03;6.63;;;2.38;;
19814;SDS011;10067;53.092;8.800;2023-12-29T01:35:30;12.40;;;3.28;;
19814;SDS011;10067;53.092;8.800;2023-12-29T01:37:56;8.75;;;2.17;;
19814;SDS011;10067;53.092;8.800;2023-12-29T01:40:22;9.50;;;2.33;;
19814;SDS011;10067;53.092;8.800;2023-12-29T01:42:49;9.65;;;2.53;;
19814;SDS011;10067;53.092;8.800;2023-12-29T01:45:20;8.98;;;2.53;;
19814;SDS011;10067;53.092;8.800;2023-12-29T01:47:47;13.07;;;3.00;;
19814;SDS011;10067;53.092;8.800;2023-12-29T01:50:15;10.18;;;2.50;;
19814;SDS011;10067;53.092;8.800;2023-12-29T01:52:41;12.32;;;2.55;;
19814;SDS011;10067;53.092;8.800;2023-12-29T01:55:08;13.85;;;2.80;;
19814;SDS011;10067;53.092;8.800;2023-12-29T01:57:36;7.32;;;2.53;;
19814;SDS011;10067;53.092;8.800;2023-12-29T02:00:04;12.27;;;3.03;;
19814;SDS011;10067;53.092;8.800;2023-12-29T02:02:31;9.18;;;2.28;;
19814;SDS011;10067;53.092;8.800;2023-12-29T02:04:57;10.77;;;2.22;;
19814;SDS011;10067;53.092;8.800;2023-12-29T02:07:27;11.15;;;2.55;;
19814;SDS011;10067;53.092;8.800;2023-12-29T02:09:55;10.20;;;2.20;;
19814;SDS011;10067;53.092;8.800;2023-12-29T02:12:22;10.07;;;2.53;;
19814;SDS011;10067;53.092;8.800;2023-12-29T02:14:49;11.38;;;2.38;;
19814;SDS011;10067;53.092;8.800;2023-12-29T02:17:15;11.90;;;2.85;;
19814;SDS011;10067;53.092;8.800;2023-12-29T02:19:44;14.00;;;2.60;;
19814;SDS011;10067;53.092;8.800;2023-12-29T02:22:11;14.70;;;2.92;;
19814;SDS011;10067;53.092;8.800;2023-12-29T02:24:39;16.73;;;3.85;;
19814;SDS011;10067;53.092;8.800;2023-12-29T02:27:16;12.10;;;3.28;;
19814;SDS011;10067;53.092;8.800;2023-12-29T02:29:45;12.23;;;3.08;;
19814;SDS011;10067;53.092;8.800;2023-12-29T02:32:16;11.73;;;2.97;;
19814;SDS011;10067;53.092;8.800;2023-12-29T02:34:42;12.82;;;3.15;;
19814;SDS011;10067;53.092;8.800;2023-12-29T02:37:10;9.70;;;2.72;;
19814;SDS011;10067;53.092;8.800;2023-12-29T02:39:38;14.02;;;3.10;;
19814;SDS011;10067;53.092;8.800;2023-12-29T02:42:05;12.68;;;3.08;;
19814;SDS011;10067;53.092;8.800;2023-12-29T02:44:32;16.25;;;3.75;;
19814;SDS011;10067;53.092;8.800;2023-12-29T02:46:59;13.40;;;3.65;;
19814;SDS011;10067;53.092;8.800;2023-12-29T02:49:26;16.88;;;3.58;;
19814;SDS011;10067;53.092;8.800;2023-12-29T02:51:52;17.08;;;3.75;;
19814;SDS011;10067;53.092;8.800;2023-12-29T02:54:18;13.77;;;3.22;;
19814;SDS011;10067;53.092;8.800;2023-12-29T02:56:45;8.45;;;2.30;;
19814;SDS011;10067;53.092;8.800;2023-12-29T02:59:11;10.88;;;2.75;;
19814;SDS011;10067;53.092;8.800;2023-12-29T03:01:39;7.30;;;2.65;;
19814;SDS011;10067;53.092;8.800;2023-12-29T03:04:05;13.63;;;3.10;;
19814;SDS011;10067;53.092;8.800;2023-12-29T03:06:32;9.63;;;3.22;;
19814;SDS011;10067;53.092;8.800;2023-12-29T03:08:58;11.75;;;3.53;;
19814;SDS011;10067;53.092;8.800;2023-12-29T03:11:24;11.85;;;3.10;;
19814;SDS011;10067;53.092;8.800;2023-12-29T03:13:51;15.13;;;3.55;;
19814;SDS011;10067;53.092;8.800;2023-12-29T03:16:17;9.85;;;3.25;;
19814;SDS011;10067;53.092;8.800;2023-12-29T03:18:45;14.00;;;3.15;;
19814;SDS011;10067;53.092;8.800;2023-12-29T03:21:12;14.95;;;3.22;;
19814;SDS011;10067;53.092;8.800;2023-12-29T03:23:39;18.52;;;3.88;;
19814;SDS011;10067;53.092;8.800;2023-12-29T03:26:05;17.48;;;4.55;;
19814;SDS011;10067;53.092;8.800;2023-12-29T03:28:31;16.52;;;3.45;;
19814;SDS011;10067;53.092;8.800;2023-12-29T03:30:58;12.55;;;3.75;;
19814;SDS011;10067;53.092;8.800;2023-12-29T03:33:24;11.48;;;3.83;;
19814;SDS011;10067;53.092;8.800;2023-12-29T03:35:52;10.50;;;3.33;;
19814;SDS011;10067;53.092;8.800;2023-12-29T03:38:18;19.70;;;3.97;;
19814;SDS011;10067;53.092;8.800;2023-12-29T03:40:44;14.48;;;3.42;;
19814;SDS011;10067;53.092;8.800;2023-12-29T03:43:11;12.60;;;3.50;;
19814;SDS011;10067;53.092;8.800;2023-12-29T03:45:37;15.88;;;3.78;;
19814;SDS011;10067;53.092;8.800;2023-12-29T03:48:04;14.77;;;4.15;;
19814;SDS011;10067;53.092;8.800;2023-12-29T03:50:30;5.60;;;1.63;;
19814;SDS011;10067;53.092;8.800;2023-12-29T03:52:58;3.33;;;1.23;;
19814;SDS011;10067;53.092;8.800;2023-12-29T03:55:24;3.38;;;0.85;;
19814;SDS011;10067;53.092;8.800;2023-12-29T03:57:51;7.60;;;1.42;;
19814;SDS011;10067;53.092;8.800;2023-12-29T04:00:17;6.82;;;1.50;;
19814;SDS011;10067;53.092;8.800;2023-12-29T04:02:43;7.33;;;1.33;;
19814;SDS011;10067;53.092;8.800;2023-12-29T04:05:10;9.37;;;2.33;;
19814;SDS011;10067;53.092;8.800;2023-12-29T04:07:38;12.63;;;2.08;;
19814;SDS011;10067;53.092;8.800;2023-12-29T04:10:06;8.50;;;1.50;;
19814;SDS011;10067;53.092;8.800;2023-12-29T04:12:37;8.03;;;1.77;;
19814;SDS011;10067;53.092;8.800;2023-12-29T04:15:03;9.03;;;1.90;;
19814;SDS011;10067;53.092;8.800;2023-12-29T04:17:30;9.67;;;1.70;;
19814;SDS011;10067;53.092;8.800;2023-12-29T04:19:56;8.27;;;1.50;;
19814;SDS011;10067;53.092;8.800;2023-12-29T04:22:23;6.43;;;1.70;;
19814;SDS011;10067;53.092;8.800;2023-12-29T04:24:49;12.47;;;2.60;;
19814;SDS011;10067;53.092;8.800;2023-12-29T04:27:17;7.80;;;1.83;;
19814;SDS011;10067;53.092;8.800;2023-12-29T04:29:43;7.93;;;1.90;;
19814;SDS011;10067;53.092;8.800;2023-12-29T04:32:10;11.67;;;1.73;;
19814;SDS011;10067;53.092;8.800;2023-12-29T04:34:36;7.97;;;2.07;;
19814;SDS011;10067;53.092;8.800;2023-12-29T04:37:03;12.52;;;2.63;;
19814;SDS011;10067;53.092;8.800;2023-12-29T04:39:29;11.20;;;2.67;;
19814;SDS011;10067;53.092;8.800;2023-12-29T04:41:55;11.83;;;3.20;;
19814;SDS011;10067;53.092;8.800;2023-12-29T04:44:23;9.57;;;1.95;;
19814;SDS011;10067;53.092;8.800;2023-12-29T04:46:49;7.78;;;2.55;;
19814;SDS011;10067;53.092;8.800;2023-12-29T04:49:16;10.73;;;2.67;;
19814;SDS011;10067;53.092;8.800;2023-12-29T04:51:42;14.80;;;2.70;;
19814;SDS011;10067;53.092;8.800;2023-12-29T04:54:08;10.07;;;2.92;;
19814;SDS011;10067;53.092;8.800;2023-12-29T04:56:35;21.50;;;3.47;;
19814;SDS011;10067;53.092;8.800;2023-12-29T04:59:01;11.25;;;3.05;;
19814;SDS011;10067;53.092;8.800;2023-12-29T05:01:29;14.95;;;2.85;;
19814;SDS011;10067;53.092;8.800;2023-12-29T05:03:56;15.70;;;2.78;;
19814;SDS011;10067;53.092;8.800;2023-12-29T05:06:22;9.57;;;2.25;;
19814;SDS011;10067;53.092;8.800;2023-12-29T05:08:48;14.60;;;2.63;;
19814;SDS011;10067;53.092;8.800;2023-12-29T05:11:15;12.85;;;2.97;;
19814;SDS011;10067;53.092;8.800;2023-12-29T05:13:41;9.88;;;2.28;;
19814;SDS011;10067;53.092;8.800;2023-12-29T05:16:08;9.20;;;2.25;;
19814;SDS011;10067;53.092;8.800;2023-12-29T05:18:35;10.23;;;2.75;;
19814;SDS011;10067;53.092;8.800;2023-12-29T05:21:02;7.53;;;2.40;;
19814;SDS011;10067;53.092;8.800;2023-12-29T05:23:28;9.40;;;2.85;;
19814;SDS011;10067;53.092;8.800;2023-12-29T05:25:54;7.00;;;2.13;;
19814;SDS011;10067;53.092;8.800;2023-12-29T05:28:21;12.05;;;2.90;;
19814;SDS011;10067;53.092;8.800;2023-12-29T05:30:47;11.00;;;3.28;;
19814;SDS011;10067;53.092;8.800;2023-12-29T05:33:14;6.28;;;2.25;;
19814;SDS011;10067;53.092;8.800;2023-12-29T05:35:41;11.85;;;3.55;;
19814;SDS011;10067;53.092;8.800;2023-12-29T05:38:08;12.57;;;2.92;;
19814;SDS011;10067;53.092;8.800;2023-12-29T05:40:34;14.43;;;2.92;;
19814;SDS011;10067;53.092;8.800;2023-12-29T05:43:00;11.73;;;2.95;;
19814;SDS011;10067;53.092;8.800;2023-12-29T05:45:27;20.67;;;3.15;;
19814;SDS011;10067;53.092;8.800;2023-12-29T05:47:53;27.02;;;3.78;;
19814;SDS011;10067;53.092;8.800;2023-12-29T05:50:20;12.93;;;2.65;;
19814;SDS011;10067;53.092;8.800;2023-12-29T05:52:49;14.02;;;2.63;;
19814;SDS011;10067;53.092;8.800;2023-12-29T05:55:17;18.05;;;3.40;;
19814;SDS011;10067;53.092;8.800;2023-12-29T05:57:43;16.92;;;3.45;;
19814;SDS011;10067;53.092;8.800;2023-12-29T06:00:10;15.95;;;4.55;;
19814;SDS011;10067;53.092;8.800;2023-12-29T06:02:39;16.67;;;4.97;;
19814;SDS011;10067;53.092;8.800;2023-12-29T06:05:06;19.45;;;4.50;;
19814;SDS011;10067;53.092;8.800;2023-12-29T06:07:33;15.18;;;3.90;;
19814;SDS011;10067;53.092;8.800;2023-12-29T06:10:01;21.38;;;4.82;;
19814;SDS011;10067;53.092;8.800;2023-12-29T06:12:27;18.33;;;3.72;;
19814;SDS011;10067;53.092;8.800;2023-12-29T06:14:54;14.32;;;3.83;;
19814;SDS011;10067;53.092;8.800;2023-12-29T06:17:20;16.33;;;3.60;;
19814;SDS011;10067;53.092;8.800;2023-12-29T06:19:47;13.55;;;3.95;;
19814;SDS011;10067;53.092;8.800;2023-12-29T06:22:13;19.17;;;4.72;;
19814;SDS011;10067;53.092;8.800;2023-12-29T06:24:40;23.23;;;4.28;;
19814;SDS011;10067;53.092;8.800;2023-12-29T06:27:08;20.10;;;3.78;;
19814;SDS011;10067;53.092;8.800;2023-12-29T06:29:35;15.38;;;3.15;;
19814;SDS011;10067;53.092;8.800;2023-12-29T06:32:02;18.77;;;3.17;;
19814;SDS011;10067;53.092;8.800;2023-12-29T06:34:28;16.35;;;3.38;;
19814;SDS011;10067;53.092;8.800;2023-12-29T06:36:55;16.75;;;4.18;;
19814;SDS011;10067;53.092;8.800;2023-12-29T06:39:21;17.15;;;3.67;;
19814;SDS011;10067;53.092;8.800;2023-12-29T06:41:48;12.82;;;3.28;;
19814;SDS011;10067;53.092;8.800;2023-12-29T06:44:16;16.92;;;3.75;;
19814;SDS011;10067;53.092;8.800;2023-12-29T06:46:42;15.02;;;3.55;;
19814;SDS011;10067;53.092;8.800;2023-12-29T06:49:09;20.27;;;4.22;;
19814;SDS011;10067;53.092;8.800;2023-12-29T06:51:35;18.23;;;3.13;;
19814;SDS011;10067;53.092;8.800;2023-12-29T06:54:01;13.45;;;3.15;;
19814;SDS011;10067;53.092;8.800;2023-12-29T06:56:27;15.68;;;3.92;;
19814;SDS011;10067;53.092;8.800;2023-12-29T06:58:54;20.95;;;5.05;;
19814;SDS011;10067;53.092;8.800;2023-12-29T07:01:22;15.90;;;3.47;;
19814;SDS011;10067;53.092;8.800;2023-12-29T07:03:49;18.65;;;3.67;;
19814;SDS011;10067;53.092;8.800;2023-12-29T07:06:15;26.02;;;4.20;;
19814;SDS011;10067;53.092;8.800;2023-12-29T07:08:42;19.95;;;3.92;;
19814;SDS011;10067;53.092;8.800;2023-12-29T07:11:09;14.93;;;3.10;;
19814;SDS011;10067;53.092;8.800;2023-12-29T07:13:35;17.25;;;3.00;;
19814;SDS011;10067;53.092;8.800;2023-12-29T07:16:02;27.10;;;3.63;;
19814;SDS011;10067;53.092;8.800;2023-12-29T07:18:30;17.60;;;3.28;;
19814;SDS011;10067;53.092;8.800;2023-12-29T07:20:56;23.42;;;3.58;;
19814;SDS011;10067;53.092;8.800;2023-12-29T07:23:23;14.02;;;3.53;;
19814;SDS011;10067;53.092;8.800;2023-12-29T07:25:49;14.55;;;2.95;;
19814;SDS011;10067;53.092;8.800;2023-12-29T07:28:16;18.30;;;3.75;;
19814;SDS011;10067;53.092;8.800;2023-12-29T07:30:42;12.35;;;2.58;;
19814;SDS011;10067;53.092;8.800;2023-12-29T07:33:09;22.13;;;4.03;;
19814;SDS011;10067;53.092;8.800;2023-12-29T07:35:37;16.77;;;4.65;;
19814;SDS011;10067;53.092;8.800;2023-12-29T07:38:03;16.17;;;3.63;;
19814;SDS011;10067;53.092;8.800;2023-12-29T07:40:30;17.38;;;3.78;;
19814;SDS011;10067;53.092;8.800;2023-12-29T07:42:56;16.35;;;3.17;;
19814;SDS011;10067;53.092;8.800;2023-12-29T07:45:23;18.80;;;3.88;;
19814;SDS011;10067;53.092;8.800;2023-12-29T07:47:49;16.92;;;4.00;;
19814;SDS011;10067;53.092;8.800;2023-12-29T07:50:16;18.83;;;3.80;;
19814;SDS011;10067;53.092;8.800;2023-12-29T07:52:44;19.98;;;3.65;;
19814;SDS011;10067;53.092;8.800;2023-12-29T07:55:10;20.20;;;4.28;;
19814;SDS011;10067;53.092;8.800;2023-12-29T07:57:36;12.85;;;3.05;;
19814;SDS011;10067;53.092;8.800;2023-12-29T08:00:03;21.67;;;3.35;;
19814;SDS011;10067;53.092;8.800;2023-12-29T08:02:31;18.33;;;3.13;;
19814;SDS011;10067;53.092;8.800;2023-12-29T08:04:57;23.95;;;4.10;;
19814;SDS011;10067;53.092;8.800;2023-12-29T08:07:24;16.95;;;2.92;;
19814;SDS011;10067;53.092;8.800;2023-12-29T08:09:51;22.27;;;4.20;;
19814;SDS011;10067;53.092;8.800;2023-12-29T08:12:18;19.63;;;3.65;;
19814;SDS011;10067;53.092;8.800;2023-12-29T08:14:44;17.75;;;3.30;;
19814;SDS011;10067;53.092;8.800;2023-12-29T08:17:11;11.70;;;2.60;;
19814;SDS011;10067;53.092;8.800;2023-12-29T08:19:38;12.35;;;3.25;;
19814;SDS011;10067;53.092;8.800;2023-12-29T08:22:04;14.98;;;3.55;;
19814;SDS011;10067;53.092;8.800;2023-12-29T08:24:30;11.13;;;3.10;;
19814;SDS011;10067;53.092;8.800;2023-12-29T08:26:58;19.23;;;3.83;;
19814;SDS011;10067;53.092;8.800;2023-12-29T08:29:24;21.70;;;3.75;;
19814;SDS011;10067;53.092;8.800;2023-12-29T08:31:51;20.95;;;4.18;;
19814;SDS011;10067;53.092;8.800;2023-12-29T08:34:17;21.23;;;4.15;;
19814;SDS011;10067;53.092;8.800;2023-12-29T08:36:44;23.23;;;4.22;;
19814;SDS011;10067;53.092;8.800;2023-12-29T08:39:10;26.98;;;4.13;;
19814;SDS011;10067;53.092;8.800;2023-12-29T08:41:37;19.13;;;3.65;;
19814;SDS011;10067;53.092;8.800;2023-12-29T08:44:04;27.23;;;4.47;;
19814;SDS011;10067;53.092;8.800;2023-12-29T08:46:31;22.52;;;4.43;;
19814;SDS011;10067;53.092;8.800;2023-12-29T08:48:57;16.60;;;3.03;;
19814;SDS011;10067;53.092;8.800;2023-12-29T08:51:24;13.65;;;3.00;;
19814;SDS011;10067;53.092;8.800;2023-12-29T08:53:50;7.90;;;2.40;;
19814;SDS011;10067;53.092;8.800;2023-12-29T08:56:16;6.38;;;1.73;;
19814;SDS011;10067;53.092;8.800;2023-12-29T08:58:43;4.82;;;1.25;;
19814;SDS011;10067;53.092;8.800;2023-12-29T09:01:11;5.70;;;1.58;;
19814;SDS011;10067;53.092;8.800;2023-12-29T09:03:37;11.93;;;1.95;;
19814;SDS011;10067;53.092;8.800;2023-12-29T09:06:03;11.18;;;2.22;;
19814;SDS011;10067;53.092;8.800;2023-12-29T09:08:30;7.95;;;2.25;;
19814;SDS011;10067;53.092;8.800;2023-12-29T09:10:57;13.32;;;2.60;;
19814;SDS011;10067;53.092;8.800;2023-12-29T09:13:23;10.90;;;2.08;;
19814;SDS011;10067;53.092;8.800;2023-12-29T09:15:51;10.00;;;2.72;;
19814;SDS011;10067;53.092;8.800;2023-12-29T09:18:19;12.95;;;2.58;;
19814;SDS011;10067;53.092;8.800;2023-12-29T09:20:45;10.23;;;2.92;;
19814;SDS011;10067;53.092;8.800;2023-12-29T09:23:12;14.27;;;2.85;;
19814;SDS011;10067;53.092;8.800;2023-12-29T09:25:39;11.82;;;2.58;;
19814;SDS011;10067;53.092;8.800;2023-12-29T09:28:06;10.55;;;2.60;;
19814;SDS011;10067;53.092;8.800;2023-12-29T09:30:32;8.73;;;2.78;;
19814;SDS011;10067;53.092;8.800;2023-12-29T09:32:58;20.50;;;6.97;;
19814;SDS011;10067;53.092;8.800;2023-12-29T09:35:26;12.55;;;3.85;;
19814;SDS011;10067;53.092;8.800;2023-12-29T09:37:53;12.82;;;3.38;;
19814;SDS011;10067;53.092;8.800;2023-12-29T09:40:19;11.07;;;2.88;;
19814;SDS011;10067;53.092;8.800;2023-12-29T09:42:45;8.68;;;2.45;;
19814;SDS011;10067;53.092;8.800;2023-12-29T09:45:12;11.48;;;2.42;;
19814;SDS011;10067;53.092;8.800;2023-12-29T09:47:39;6.60;;;2.17;;
19814;SDS011;10067;53.092;8.800;2023-12-29T09:50:06;8.38;;;2.20;;
19814;SDS011;10067;53.092;8.800;2023-12-29T09:52:34;8.57;;;2.50;;
19814;SDS011;10067;53.092;8.800;2023-12-29T09:55:02;9.57;;;2.60;;
19814;SDS011;10067;53.092;8.800;2023-12-29T09:57:29;17.35;;;3.58;;
19814;SDS011;10067;53.092;8.800;2023-12-29T09:59:56;11.57;;;2.92;;
19814;SDS011;10067;53.092;8.800;2023-12-29T10:02:23;7.93;;;2.47;;
19814;SDS011;10067;53.092;8.800;2023-12-29T10:04:49;9.93;;;2.70;;
19814;SDS011;10067;53.092;8.800;2023-12-29T10:07:18;11.40;;;2.90;;
19814;SDS011;10067;53.092;8.800;2023-12-29T10:09:47;12.43;;;2.50;;
19814;SDS011;10067;53.092;8.800;2023-12-29T10:12:17;13.15;;;3.13;;
19814;SDS011;10067;53.092;8.800;2023-12-29T10:14:46;12.68;;;2.85;;
19814;SDS011;10067;53.092;8.800;2023-12-29T10:17:18;17.30;;;3.33;;
19814;SDS011;10067;53.092;8.800;2023-12-29T10:19:45;11.43;;;2.70;;
19814;SDS011;10067;53.092;8.800;2023-12-29T10:22:18;16.33;;;3.15;;
19814;SDS011;10067;53.092;8.800;2023-12-29T10:24:44;12.68;;;2.95;;
19814;SDS011;10067;53.092;8.800;2023-12-29T10:27:13;15.52;;;3.40;;
19814;SDS011;10067;53.092;8.800;2023-12-29T10:29:39;11.27;;;2.53;;
19814;SDS011;10067;53.092;8.800;2023-12-29T10:32:06;15.52;;;2.63;;
19814;SDS011;10067;53.092;8.800;2023-12-29T10:34:31;6.53;;;2.00;;
19814;SDS011;10067;53.092;8.800;2023-12-29T10:36:58;6.07;;;1.65;;
19814;SDS011;10067;53.092;8.800;2023-12-29T10:39:26;5.05;;;1.55;;
19814;SDS011;10067;53.092;8.800;2023-12-29T10:42:02;8.57;;;1.60;;
19814;SDS011;10067;53.092;8.800;2023-12-29T10:44:30;10.57;;;2.13;;
19814;SDS011;10067;53.092;8.800;2023-12-29T10:46:56;5.70;;;1.33;;
19814;SDS011;10067;53.092;8.800;2023-12-29T10:49:23;8.43;;;1.98;;
19814;SDS011;10067;53.092;8.800;2023-12-29T10:51:49;5.30;;;1.58;;
19814;SDS011;10067;53.092;8.800;2023-12-29T10:54:19;9.73;;;2.35;;
19814;SDS011;10067;53.092;8.800;2023-12-29T10:56:47;10.52;;;2.17;;
19814;SDS011;10067;53.092;8.800;2023-12-29T10:59:13;12.88;;;2.38;;
19814;SDS011;10067;53.092;8.800;2023-12-29T11:01:41;12.18;;;2.17;;
19814;SDS011;10067;53.092;8.800;2023-12-29T11:04:07;4.30;;;1.13;;
19814;SDS011;10067;53.092;8.800;2023-12-29T11:06:39;9.68;;;2.20;;
19814;SDS011;10067;53.092;8.800;2023-12-29T11:09:06;6.03;;;1.60;;
19814;SDS011;10067;53.092;8.800;2023-12-29T11:11:32;8.10;;;2.28;;
19814;SDS011;10067;53.092;8.800;2023-12-29T11:14:01;7.95;;;2.60;;
19814;SDS011;10067;53.092;8.800;2023-12-29T11:16:29;11.00;;;2.85;;
19814;SDS011;10067;53.092;8.800;2023-12-29T11:18:58;12.38;;;3.47;;
19814;SDS011;10067;53.092;8.800;2023-12-29T11:21:25;7.82;;;2.92;;
19814;SDS011;10067;53.092;8.800;2023-12-29T11:23:52;9.15;;;2.95;;
19814;SDS011;10067;53.092;8.800;2023-12-29T11:26:19;11.88;;;3.13;;
19814;SDS011;10067;53.092;8.800;2023-12-29T11:28:46;11.82;;;3.40;;
19814;SDS011;10067;53.092;8.800;2023-12-29T11:31:12;11.48;;;3.33;;
19814;SDS011;10067;53.092;8.800;2023-12-29T11:33:40;7.63;;;3.10;;
19814;SDS011;10067;53.092;8.800;2023-12-29T11:36:10;9.82;;;2.88;;
19814;SDS011;10067;53.092;8.800;2023-12-29T11:38:41;8.95;;;3.05;;
19814;SDS011;10067;53.092;8.800;2023-12-29T11:41:12;7.85;;;2.78;;
19814;SDS011;10067;53.092;8.800;2023-12-29T11:43:40;5.35;;;2.30;;
19814;SDS011;10067;53.092;8.800;2023-12-29T11:46:06;6.45;;;2.20;;
19814;SDS011;10067;53.092;8.800;2023-12-29T11:51:29;5.82;;;2.25;;
19814;SDS011;10067;53.092;8.800;2023-12-29T11:53:56;8.93;;;2.33;;
19814;SDS011;10067;53.092;8.800;2023-12-29T11:56:22;3.30;;;1.58;;
19814;SDS011;10067;53.092;8.800;2023-12-29T11:58:49;4.28;;;1.50;;
19814;SDS011;10067;53.092;8.800;2023-12-29T12:01:27;5.75;;;1.52;;
19814;SDS011;10067;53.092;8.800;2023-12-29T12:03:59;5.53;;;1.55;;
19814;SDS011;10067;53.092;8.800;2023-12-29T12:06:37;5.63;;;1.50;;
19814;SDS011;10067;53.092;8.800;2023-12-29T12:09:16;4.95;;;1.60;;
19814;SDS011;10067;53.092;8.800;2023-12-29T12:11:44;4.25;;;1.35;;
19814;SDS011;10067;53.092;8.800;2023-12-29T12:14:10;5.78;;;1.20;;
19814;SDS011;10067;53.092;8.800;2023-12-29T12:16:47;4.15;;;1.10;;
19814;SDS011;10067;53.092;8.800;2023-12-29T12:19:14;3.42;;;1.20;;
19814;SDS011;10067;53.092;8.800;2023-12-29T12:21:43;3.28;;;0.95;;
19814;SDS011;10067;53.092;8.800;2023-12-29T12:24:10;3.38;;;1.30;;
19814;SDS011;10067;53.092;8.800;2023-12-29T12:26:36;3.28;;;1.05;;
19814;SDS011;10067;53.092;8.800;2023-12-29T12:29:03;3.22;;;1.17;;
19814;SDS011;10067;53.092;8.800;2023-12-29T12:31:30;3.38;;;1.17;;
19814;SDS011;10067;53.092;8.800;2023-12-29T12:33:56;5.18;;;1.63;;
19814;SDS011;10067;53.092;8.800;2023-12-29T12:36:23;4.25;;;1.38;;
19814;SDS011;10067;53.092;8.800;2023-12-29T12:38:52;5.75;;;1.40;;
19814;SDS011;10067;53.092;8.800;2023-12-29T12:41:18;4.40;;;1.33;;
19814;SDS011;10067;53.092;8.800;2023-12-29T12:43:45;4.90;;;1.40;;
19814;SDS011;10067;53.092;8.800;2023-12-29T12:46:16;6.10;;;1.50;;
19814;SDS011;10067;53.092;8.800;2023-12-29T12:48:43;4.75;;;1.15;;
19814;SDS011;10067;53.092;8.800;2023-12-29T12:51:10;9.73;;;1.80;;
19814;SDS011;10067;53.092;8.800;2023-12-29T12:53:39;11.27;;;2.00;;
19814;SDS011;10067;53.092;8.800;2023-12-29T12:56:07;5.45;;;1.85;;
19814;SDS011;10067;53.092;8.800;2023-12-29T12:58:33;6.65;;;1.50;;
19814;SDS011;10067;53.092;8.800;2023-12-29T13:01:00;11.95;;;1.90;;
19814;SDS011;10067;53.092;8.800;2023-12-29T13:03:27;10.40;;;2.45;;
19814;SDS011;10067;53.092;8.800;2023-12-29T13:05:54;8.77;;;2.25;;
19814;SDS011;10067;53.092;8.800;2023-12-29T13:08:23;11.52;;;2.08;;
19814;SDS011;10067;53.092;8.800;2023-12-29T13:10:50;7.90;;;1.90;;
19814;SDS011;10067;53.092;8.800;2023-12-29T13:13:17;6.47;;;1.67;;
19814;SDS011;10067;53.092;8.800;2023-12-29T13:15:45;10.52;;;2.25;;
19814;SDS011;10067;53.092;8.800;2023-12-29T13:18:12;11.50;;;2.10;;
19814;SDS011;10067;53.092;8.800;2023-12-29T13:20:47;9.27;;;2.28;;
19814;SDS011;10067;53.092;8.800;2023-12-29T13:23:14;9.35;;;1.55;;
19814;SDS011;10067;53.092;8.800;2023-12-29T13:25:42;8.32;;;1.75;;
19814;SDS011;10067;53.092;8.800;2023-12-29T13:28:09;15.10;;;2.85;;
19814;SDS011;10067;53.092;8.800;2023-12-29T13:30:37;9.85;;;2.33;;
19814;SDS011;10067;53.092;8.800;2023-12-29T13:33:04;12.02;;;2.38;;
19814;SDS011;10067;53.092;8.800;2023-12-29T13:35:36;5.78;;;2.17;;
19814;SDS011;10067;53.092;8.800;2023-12-29T13:38:05;8.38;;;1.80;;
19814;SDS011;10067;53.092;8.800;2023-12-29T13:40:35;7.45;;;1.90;;
19814;SDS011;10067;53.092;8.800;2023-12-29T13:43:07;7.15;;;1.85;;
19814;SDS011;10067;53.092;8.800;2023-12-29T13:45:34;6.90;;;2.20;;
19814;SDS011;10067;53.092;8.800;2023-12-29T13:48:04;5.47;;;1.55;;
19814;SDS011;10067;53.092;8.800;2023-12-29T13:50:31;11.00;;;2.63;;
19814;SDS011;10067;53.092;8.800;2023-12-29T13:52:58;9.48;;;2.55;;
19814;SDS011;10067;53.092;8.800;2023-12-29T13:55:24;7.18;;;1.80;;
19814;SDS011;10067;53.092;8.800;2023-12-29T13:57:51;6.93;;;2.15;;
19814;SDS011;10067;53.092;8.800;2023-12-29T14:00:19;9.40;;;2.38;;
19814;SDS011;10067;53.092;8.800;2023-12-29T14:02:48;9.48;;;2.88;;
19814;SDS011;10067;53.092;8.800;2023-12-29T14:05:19;9.82;;;2.60;;
19814;SDS011;10067;53.092;8.800;2023-12-29T14:07:47;7.80;;;2.17;;
19814;SDS011;10067;53.092;8.800;2023-12-29T14:10:14;10.73;;;2.65;;
19814;SDS011;10067;53.092;8.800;2023-12-29T14:12:40;10.77;;;2.30;;
19814;SDS011;10067;53.092;8.800;2023-12-29T14:15:07;5.50;;;2.13;;
19814;SDS011;10067;53.092;8.800;2023-12-29T14:17:34;9.95;;;2.25;;
19814;SDS011;10067;53.092;8.800;2023-12-29T14:20:00;7.68;;;2.53;;
19814;SDS011;10067;53.092;8.800;2023-12-29T14:22:32;11.93;;;2.88;;
19814;SDS011;10067;53.092;8.800;2023-12-29T14:24:59;10.68;;;2.67;;
19814;SDS011;10067;53.092;8.800;2023-12-29T14:27:26;7.32;;;2.58;;
19814;SDS011;10067;53.092;8.800;2023-12-29T14:29:53;10.00;;;3.13;;
19814;SDS011;10067;53.092;8.800;2023-12-29T14:32:19;12.05;;;3.28;;
19814;SDS011;10067;53.092;8.800;2023-12-29T14:34:47;11.50;;;2.88;;
19814;SDS011;10067;53.092;8.800;2023-12-29T14:37:17;10.13;;;2.85;;
19814;SDS011;10067;53.092;8.800;2023-12-29T14:39:48;9.98;;;2.55;;